Time;durP1;ratioP1;P1;durP2;ratioP2;P2;SDS_P1;SDS_P2;PMS_P1;PMS_P2;Temp;Humidity;BMP_temperature;BMP_pressure;BME280_temperature;BME280_humidity;BME280_pressure;Samples;Min_cycle;Max_cycle;Signal;HPM_P1;HPM_P2
2021/12/30 00:00:48;;;;;;;20.83;11.18;;;;;;;5.58;68.15;99732.94;4381605;32;34607;-76
2021/12/30 00:03:16;;;;;;;27.77;10.40;;;;;;;5.76;67.74;99734.56;4407655;32;34740;-75
2021/12/30 00:05:44;;;;;;;21.10;9.90;;;;;;;5.73;67.75;99733.03;4393377;32;33647;-75
2021/12/30 00:08:12;;;;;;;29.50;9.77;;;;;;;5.62;68.07;99734.28;4381285;32;33700;-75
2021/12/30 00:10:41;;;;;;;29.50;9.05;;;;;;;5.60;67.92;99739.03;4381657;32;35464;-76
2021/12/30 00:13:09;;;;;;;18.77;9.25;;;;;;;5.56;68.24;99742.28;4393959;32;34925;-75
2021/12/30 00:15:37;;;;;;;22.20;8.85;;;;;;;5.61;67.73;99740.75;4381259;32;33474;-75
2021/12/30 00:18:07;;;;;;;18.35;7.78;;;;;;;5.63;67.83;99751.47;4407561;32;33396;-76
2021/12/30 00:20:35;;;;;;;25.48;9.30;;;;;;;5.60;67.79;99755.38;4380622;32;34405;-76
2021/12/30 00:23:04;;;;;;;24.12;9.70;;;;;;;5.47;68.32;99756.94;4393428;32;33671;-76
2021/12/30 00:25:38;;;;;;;18.37;8.68;;;;;;;5.52;68.03;99757.28;4393065;32;33486;-75
2021/12/30 00:28:17;;;;;;;22.60;9.32;;;;;;;5.61;67.89;99757.06;4394257;32;33612;-75
2021/12/30 00:30:46;;;;;;;25.33;9.50;;;;;;;5.57;68.02;99750.28;4375284;32;33928;-75
2021/12/30 00:33:14;;;;;;;21.27;9.48;;;;;;;5.67;67.62;99760.97;4379708;32;34054;-75
2021/12/30 00:35:46;;;;;;;18.83;8.20;;;;;;;5.75;67.37;99776.44;4381167;32;33396;-75
2021/12/30 00:38:15;;;;;;;18.55;8.70;;;;;;;5.77;67.36;99777.09;4380707;32;34632;-75
2021/12/30 00:40:43;;;;;;;20.30;9.43;;;;;;;5.80;67.24;99782.19;4380031;32;34691;-75
2021/12/30 00:43:11;;;;;;;22.67;8.90;;;;;;;5.87;67.07;99775.00;4394288;32;34084;-75
2021/12/30 00:45:38;;;;;;;27.02;9.35;;;;;;;5.93;66.70;99777.91;4368113;32;33649;-75
2021/12/30 00:48:07;;;;;;;26.40;9.55;;;;;;;5.95;66.79;99785.88;4367741;32;34166;-76
2021/12/30 00:50:36;;;;;;;24.52;9.93;;;;;;;5.84;67.07;99781.69;4380359;32;34164;-75
2021/12/30 00:53:05;;;;;;;30.52;10.13;;;;;;;5.86;67.06;99790.47;4367870;32;34058;-75
2021/12/30 00:55:33;;;;;;;21.27;9.57;;;;;;;5.83;67.07;99790.88;4394029;32;33472;-75
2021/12/30 00:58:03;;;;;;;24.48;10.02;;;;;;;5.92;66.88;99806.16;4380501;32;34529;-75
2021/12/30 01:00:31;;;;;;;24.58;9.82;;;;;;;5.84;67.16;99799.88;4367691;32;32958;-75
2021/12/30 01:02:59;;;;;;;38.67;11.35;;;;;;;5.76;67.30;99802.63;4368068;32;34570;-75
2021/12/30 01:05:27;;;;;;;27.58;10.93;;;;;;;5.69;67.90;99807.09;4367930;32;33447;-75
2021/12/30 01:07:56;;;;;;;39.17;10.43;;;;;;;5.73;67.87;99816.59;4368028;32;33661;-75
2021/12/30 01:10:26;;;;;;;36.85;10.77;;;;;;;5.74;67.94;99818.31;4380322;32;34358;-75
2021/12/30 01:13:05;;;;;;;37.78;10.32;;;;;;;5.86;67.37;99808.69;4380978;32;34795;-75
2021/12/30 01:15:45;;;;;;;28.65;10.15;;;;;;;5.99;67.06;99806.31;4380702;32;33223;-75
2021/12/30 01:18:27;;;;;;;35.60;10.82;;;;;;;6.08;66.68;99816.13;4367884;32;33259;-76
2021/12/30 01:20:55;;;;;;;40.47;10.88;;;;;;;6.07;66.83;99814.44;4393951;32;34395;-77
2021/12/30 01:23:24;;;;;;;31.05;10.45;;;;;;;5.80;67.60;99809.44;4366946;32;32596;-77
2021/12/30 01:25:51;;;;;;;39.95;11.18;;;;;;;5.86;67.44;99822.31;4380296;32;34441;-78
2021/12/30 01:28:22;;;;;;;62.97;11.55;;;;;;;5.85;67.58;99826.91;4367646;32;33831;-77
2021/12/30 01:30:51;;;;;;;42.08;10.95;;;;;;;5.88;67.36;99833.87;4367750;32;35522;-78
2021/12/30 01:33:18;;;;;;;25.62;9.98;;;;;;;5.78;67.65;99825.09;4380117;32;33899;-78
2021/12/30 01:35:46;;;;;;;41.05;11.20;;;;;;;5.86;67.41;99819.59;4367770;32;33557;-78
2021/12/30 01:38:16;;;;;;;31.58;10.75;;;;;;;5.89;67.39;99825.56;4379989;32;34386;-78
2021/12/30 01:40:46;;;;;;;45.95;11.43;;;;;;;5.99;67.06;99839.00;4367997;32;34309;-78
2021/12/30 01:43:15;;;;;;;38.30;9.85;;;;;;;5.87;67.36;99829.47;4379241;32;34541;-77
2021/12/30 01:45:45;;;;;;;76.20;10.63;;;;;;;5.87;67.52;99832.19;4380109;32;33690;-77
2021/12/30 01:48:14;;;;;;;55.05;10.38;;;;;;;5.84;67.68;99840.75;4368153;32;33933;-78
2021/12/30 01:50:44;;;;;;;33.50;10.32;;;;;;;5.77;67.72;99835.13;4380166;32;34709;-78
2021/12/30 01:53:11;;;;;;;25.20;10.15;;;;;;;5.97;67.05;99835.59;4367083;32;34170;-77
2021/12/30 01:55:41;;;;;;;40.63;9.82;;;;;;;5.98;67.20;99834.56;4366293;32;32321;-77
2021/12/30 01:58:10;;;;;;;39.13;11.05;;;;;;;5.93;67.25;99836.97;4379270;32;33806;-78
2021/12/30 02:00:38;;;;;;;45.72;10.05;;;;;;;5.89;67.54;99836.47;4393275;32;34228;-77
2021/12/30 02:03:09;;;;;;;42.78;10.25;;;;;;;5.87;67.75;99837.62;4379587;32;33742;-78
2021/12/30 02:05:38;;;;;;;42.22;9.88;;;;;;;5.76;67.93;99829.88;4380582;32;33884;-78
2021/12/30 02:08:07;;;;;;;38.42;11.12;;;;;;;5.79;67.87;99833.09;4367374;32;32164;-78
2021/12/30 02:10:35;;;;;;;38.75;10.20;;;;;;;5.74;68.33;99831.91;4379912;32;35516;-77
2021/12/30 02:13:03;;;;;;;42.67;9.43;;;;;;;5.83;68.05;99828.16;4379992;32;34023;-77
2021/12/30 02:15:30;;;;;;;38.85;10.90;;;;;;;5.97;67.81;99823.84;4367946;32;33500;-78
2021/12/30 02:17:59;;;;;;;25.73;9.88;;;;;;;6.02;67.42;99835.91;4367422;32;33905;-77
2021/12/30 02:20:45;;;;;;;25.90;10.38;;;;;;;6.07;67.43;99829.94;4367688;32;35111;-78
2021/12/30 02:23:15;;;;;;;23.92;10.23;;;;;;;5.95;67.77;99829.47;4367285;32;32588;-77
2021/12/30 02:25:43;;;;;;;29.30;11.63;;;;;;;6.07;67.28;99830.78;4379905;32;33446;-77
2021/12/30 02:28:13;;;;;;;28.30;11.65;;;;;;;5.90;67.96;99831.88;4367534;32;34246;-78
2021/12/30 02:30:41;;;;;;;29.75;11.40;;;;;;;5.97;67.80;99838.31;4367480;32;34606;-77
2021/12/30 02:33:09;;;;;;;25.90;11.20;;;;;;;5.77;68.50;99842.47;4393255;32;33943;-78
2021/12/30 02:35:37;;;;;;;26.92;11.52;;;;;;;5.98;67.88;99842.75;4379672;32;34290;-78
2021/12/30 02:38:05;;;;;;;29.00;11.65;;;;;;;5.84;68.40;99844.31;4379685;32;34938;-78
2021/12/30 02:40:37;;;;;;;33.95;11.43;;;;;;;5.89;68.21;99835.63;4367522;32;34346;-78
2021/12/30 02:43:07;;;;;;;26.15;11.05;;;;;;;5.84;68.46;99825.25;4393438;32;33924;-78
2021/12/30 02:45:34;;;;;;;27.48;10.68;;;;;;;5.87;68.53;99810.41;4393527;32;33359;-78
2021/12/30 02:48:02;;;;;;;31.17;12.13;;;;;;;5.71;68.95;99815.94;4367340;32;33856;-78
2021/12/30 02:50:30;;;;;;;29.00;12.15;;;;;;;5.60;69.02;99807.09;4379557;32;35248;-78
2021/12/30 02:53:00;;;;;;;34.38;13.05;;;;;;;5.79;68.41;99816.75;4367337;32;34873;-78
2021/12/30 02:55:27;;;;;;;27.40;12.43;;;;;;;5.81;68.10;99830.19;4367561;32;33510;-78
2021/12/30 02:57:55;;;;;;;29.10;11.52;;;;;;;5.69;68.69;99828.88;4367203;32;34608;-78
2021/12/30 03:00:22;;;;;;;28.08;11.40;;;;;;;5.93;67.92;99826.91;4392988;32;34396;-77
2021/12/30 03:02:50;;;;;;;29.05;11.90;;;;;;;5.88;67.93;99825.72;4367208;32;33855;-77
2021/12/30 03:05:19;;;;;;;36.17;12.18;;;;;;;5.88;67.66;99826.56;4366816;32;32201;-77
2021/12/30 03:07:47;;;;;;;30.80;13.23;;;;;;;5.77;68.33;99826.97;4379718;32;33528;-77
2021/12/30 03:10:17;;;;;;;35.53;12.68;;;;;;;5.86;67.84;99831.34;4367016;32;33578;-77
2021/12/30 03:12:44;;;;;;;27.65;12.30;;;;;;;5.83;67.71;99834.44;4367174;32;33915;-77
2021/12/30 03:15:13;;;;;;;27.75;11.60;;;;;;;6.03;67.27;99845.78;4365954;32;32997;-77
2021/12/30 03:17:41;;;;;;;25.30;10.85;;;;;;;5.81;68.20;99841.09;4379026;32;33682;-77
2021/12/30 03:20:09;;;;;;;30.52;11.48;;;;;;;5.77;68.13;99839.75;4354615;32;33930;-77
2021/12/30 03:22:38;;;;;;;25.10;11.32;;;;;;;5.80;67.96;99834.78;4379334;32;34882;-77
2021/12/30 03:25:07;;;;;;;26.42;11.48;;;;;;;5.88;67.86;99840.19;4379281;32;33397;-77
2021/12/30 03:27:35;;;;;;;27.58;12.00;;;;;;;5.75;68.13;99844.50;4393073;32;33613;-78
2021/12/30 03:30:05;;;;;;;27.98;11.50;;;;;;;5.85;67.67;99839.72;4367046;32;34191;-77
2021/12/30 03:32:33;;;;;;;28.08;11.65;;;;;;;5.85;67.74;99845.16;4379175;32;33971;-77
2021/12/30 03:35:00;;;;;;;29.55;11.48;;;;;;;5.94;67.46;99847.69;4366937;32;33675;-77
2021/12/30 03:37:28;;;;;;;32.38;12.82;;;;;;;5.85;67.69;99848.69;4366868;32;33647;-77
2021/12/30 03:39:56;;;;;;;26.42;11.23;;;;;;;5.94;67.31;99841.37;4366891;32;35161;-77
2021/12/30 03:42:23;;;;;;;32.65;12.88;;;;;;;5.84;67.84;99848.91;4379200;32;34187;-78
2021/12/30 03:44:56;;;;;;;27.75;10.55;;;;;;;5.75;68.19;99852.69;4366802;32;33400;-77
2021/12/30 03:47:24;;;;;;;31.00;13.10;;;;;;;5.97;67.53;99854.66;4379821;32;33741;-77
2021/12/30 03:49:52;;;;;;;30.17;13.80;;;;;;;5.91;67.55;99860.81;4367049;32;34630;-78
2021/12/30 03:52:26;;;;;;;28.98;12.00;;;;;;;5.84;67.80;99862.53;4378996;32;34627;-78
2021/12/30 03:54:53;;;;;;;32.92;12.37;;;;;;;5.81;67.96;99866.44;4379609;32;33497;-78
2021/12/30 03:57:21;;;;;;;30.50;12.27;;;;;;;5.88;67.64;99877.47;4378781;32;33636;-78
2021/12/30 03:59:49;;;;;;;28.52;11.75;;;;;;;5.77;67.93;99880.59;4378604;32;34432;-78
2021/12/30 04:02:17;;;;;;;28.70;12.50;;;;;;;5.75;68.06;99879.91;4366616;32;34012;-77
2021/12/30 04:04:45;;;;;;;25.62;11.85;;;;;;;5.73;67.95;99885.53;4366420;32;33654;-78
2021/12/30 04:07:12;;;;;;;27.83;12.68;;;;;;;5.79;68.02;99884.84;4367394;32;33629;-77
2021/12/30 04:09:40;;;;;;;32.80;13.18;;;;;;;5.94;67.71;99876.81;4368711;32;35038;-77
2021/12/30 04:12:08;;;;;;;29.52;12.73;;;;;;;5.83;67.65;99864.41;4368502;32;34031;-77
2021/12/30 04:14:36;;;;;;;34.83;13.02;;;;;;;5.75;67.84;99866.28;4368380;32;33752;-77
2021/12/30 04:17:04;;;;;;;32.05;12.43;;;;;;;5.51;68.82;99881.63;4380779;32;33864;-77
2021/12/30 04:19:32;;;;;;;33.72;13.38;;;;;;;5.56;68.66;99890.16;4380822;32;34108;-77
2021/12/30 04:21:59;;;;;;;34.90;14.65;;;;;;;5.70;68.36;99880.44;4380553;32;33933;-77
2021/12/30 04:24:27;;;;;;;30.42;14.00;;;;;;;5.77;68.35;99895.06;4368367;32;33745;-77
2021/12/30 04:26:55;;;;;;;39.97;14.05;;;;;;;5.49;69.16;99889.13;4368595;32;34713;-77
2021/12/30 04:29:22;;;;;;;42.30;14.35;;;;;;;5.59;68.95;99903.41;4368317;32;35213;-77
2021/12/30 04:31:50;;;;;;;35.83;14.82;;;;;;;5.69;68.65;99916.00;4368496;32;34181;-77
2021/12/30 04:34:18;;;;;;;51.92;13.75;;;;;;;5.69;69.07;99921.44;4368380;32;33455;-77
2021/12/30 04:36:45;;;;;;;49.30;14.55;;;;;;;5.64;69.30;99911.06;4367941;32;34546;-77
2021/12/30 04:39:13;;;;;;;40.70;14.05;;;;;;;5.53;69.41;99905.97;4368404;32;34375;-77
2021/12/30 04:41:41;;;;;;;32.05;14.02;;;;;;;5.70;69.17;99915.81;4380510;32;34041;-77
2021/12/30 04:44:09;;;;;;;35.45;13.88;;;;;;;5.75;68.85;99926.19;4368163;32;33363;-77
2021/12/30 04:46:37;;;;;;;44.47;13.35;;;;;;;5.90;68.30;99930.78;4368323;32;34598;-77
2021/12/30 04:49:05;;;;;;;28.15;12.73;;;;;;;6.00;68.07;99941.47;4368330;32;34284;-77
2021/12/30 04:51:32;;;;;;;41.78;14.45;;;;;;;6.03;68.07;99945.75;4367958;32;32627;-77
2021/12/30 04:54:00;;;;;;;44.65;14.82;;;;;;;6.00;68.08;99957.84;4368431;32;33438;-77
2021/12/30 04:56:28;;;;;;;39.00;13.60;;;;;;;5.92;68.16;99950.53;4380491;32;33303;-77
2021/12/30 04:58:55;;;;;;;48.75;13.43;;;;;;;5.97;67.95;99954.59;4367987;32;33883;-78
2021/12/30 05:01:23;;;;;;;38.33;13.27;;;;;;;5.99;68.00;99969.75;4380265;32;34063;-77
2021/12/30 05:03:53;;;;;;;31.30;12.48;;;;;;;5.90;68.03;99974.34;4365410;32;33227;-78
2021/12/30 05:06:21;;;;;;;38.17;13.65;;;;;;;5.93;68.10;99982.19;4365377;32;33624;-77
2021/12/30 05:08:48;;;;;;;33.40;13.70;;;;;;;5.87;68.47;99984.72;4352868;32;33673;-77
2021/12/30 05:11:16;;;;;;;48.67;13.75;;;;;;;5.94;68.28;99992.06;4365409;32;34723;-77
2021/12/30 05:13:44;;;;;;;44.33;12.80;;;;;;;5.87;68.31;100003.78;4353100;32;33555;-77
2021/12/30 05:16:11;;;;;;;49.33;14.82;;;;;;;5.87;68.60;100025.56;4352992;32;34549;-77
2021/12/30 05:18:40;;;;;;;53.35;13.40;;;;;;;5.76;68.90;100032.22;4352140;32;35116;-77
2021/12/30 05:21:08;;;;;;;52.65;13.80;;;;;;;5.66;68.95;100031.53;4353399;32;34074;-77
2021/12/30 05:23:35;;;;;;;40.25;13.73;;;;;;;5.66;69.18;100025.25;4353046;32;34247;-77
2021/12/30 05:26:03;;;;;;;45.47;15.25;;;;;;;5.67;69.28;100033.25;4353362;32;34366;-77
2021/12/30 05:28:31;;;;;;;45.72;13.82;;;;;;;5.76;69.00;100045.84;4353055;32;35204;-77
2021/12/30 05:30:58;;;;;;;38.92;13.88;;;;;;;5.90;68.62;100038.88;4353252;32;33684;-77
2021/12/30 05:33:26;;;;;;;35.88;12.68;;;;;;;5.92;68.71;100043.13;4352769;32;33709;-77
2021/12/30 05:35:53;;;;;;;40.70;13.52;;;;;;;5.98;68.59;100035.31;4353071;32;34559;-77
2021/12/30 05:38:21;;;;;;;46.10;13.98;;;;;;;5.95;68.48;100039.22;4364932;32;34366;-77
2021/12/30 05:40:49;;;;;;;39.65;13.65;;;;;;;5.99;68.50;100048.75;4339914;32;32637;-77
2021/12/30 05:43:16;;;;;;;37.85;12.90;;;;;;;5.83;68.91;100046.03;4352553;32;33774;-77
2021/12/30 05:45:44;;;;;;;45.42;14.25;;;;;;;6.02;68.31;100048.41;4352495;32;33980;-77
2021/12/30 05:48:12;;;;;;;42.05;13.95;;;;;;;6.02;68.56;100064.75;4352924;32;34620;-77
2021/12/30 05:50:39;;;;;;;35.22;12.75;;;;;;;6.10;68.36;100059.31;4352782;32;34648;-77
2021/12/30 05:53:07;;;;;;;36.53;15.43;;;;;;;6.06;68.58;100049.78;4353003;32;34492;-77
2021/12/30 05:55:34;;;;;;;37.72;14.70;;;;;;;6.05;68.35;100053.53;4352831;32;33348;-78
2021/12/30 05:58:02;;;;;;;35.00;12.57;;;;;;;6.22;68.03;100046.19;4353091;32;34548;-77
2021/12/30 06:00:31;;;;;;;41.83;13.85;;;;;;;6.19;68.01;100038.34;4364870;32;34051;-77
2021/12/30 06:02:59;;;;;;;44.40;14.20;;;;;;;6.08;68.49;100050.44;4365286;32;33537;-80
2021/12/30 06:05:27;;;;;;;48.47;12.18;;;;;;;6.11;68.24;100047.37;4379640;32;34628;-77
2021/12/30 06:07:55;;;;;;;36.22;12.55;;;;;;;6.07;68.39;100051.47;4367516;32;33001;-78
2021/12/30 06:10:22;;;;;;;35.35;12.95;;;;;;;6.26;72.72;100062.03;4379985;32;34907;-76
2021/12/30 06:12:50;;;;;;;33.63;12.60;;;;;;;6.17;71.30;100076.69;4367496;32;31905;-77
2021/12/30 06:15:17;;;;;;;37.58;12.95;;;;;;;6.22;70.04;100090.66;4367531;32;33768;-77
2021/12/30 06:17:45;;;;;;;45.60;12.57;;;;;;;6.28;69.10;100087.22;4367577;32;33991;-76
2021/12/30 06:20:14;;;;;;;37.50;12.13;;;;;;;6.22;68.80;100082.47;4367454;32;33971;-77
2021/12/30 06:22:42;;;;;;;32.58;12.80;;;;;;;6.32;68.26;100092.34;4380246;32;33413;-77
2021/12/30 06:25:11;;;;;;;27.67;11.25;;;;;;;6.20;68.31;100083.66;4380003;32;34691;-77
2021/12/30 06:27:39;;;;;;;35.25;12.05;;;;;;;6.27;68.12;100093.72;4379532;32;35016;-76
2021/12/30 06:30:07;;;;;;;28.40;11.48;;;;;;;6.28;68.01;100102.72;4379330;32;33648;-77
2021/12/30 06:32:35;;;;;;;76.82;16.12;;;;;;;6.19;67.95;100112.78;4365430;32;33509;-77
2021/12/30 06:35:03;;;;;;;51.15;18.80;;;;;;;6.17;67.91;100116.69;4377545;32;33823;-77
2021/12/30 06:37:31;;;;;;;38.38;14.60;;;;;;;6.06;68.10;100117.88;4377612;32;34447;-77
2021/12/30 06:39:58;;;;;;;34.85;13.62;;;;;;;6.06;68.19;100119.75;4365593;32;34898;-77
2021/12/30 06:42:26;;;;;;;48.20;13.90;;;;;;;6.09;68.21;100123.00;4352729;32;32918;-76
2021/12/30 06:44:53;;;;;;;40.90;13.35;;;;;;;6.12;67.86;100125.37;4377380;32;34722;-76
2021/12/30 06:47:23;;;;;;;34.50;12.73;;;;;;;6.34;74.72;100144.81;4366375;32;34176;-76
2021/12/30 06:50:00;;;;;;;35.60;12.98;;;;;;;6.48;71.75;100136.81;4379672;32;34728;-76
2021/12/30 06:52:28;;;;;;;;;;;;;;;6.46;69.92;100149.75;4380452;32;34335;-76
2021/12/30 06:54:58;;;;;;;32.58;12.35;;;;;;;6.49;68.70;100157.59;4379605;32;34595;-76
2021/12/30 06:57:28;;;;;;;34.72;12.35;;;;;;;6.43;68.15;100161.00;4377913;32;35193;-76
2021/12/30 06:59:56;;;;;;;60.35;16.55;;;;;;;6.32;68.04;100193.19;4379581;32;34740;-76
2021/12/30 07:02:24;;;;;;;44.72;14.10;;;;;;;6.15;68.17;100200.50;4379162;32;33542;-76
2021/12/30 07:04:51;;;;;;;36.38;14.52;;;;;;;6.10;67.93;100202.87;4379271;32;33759;-77
2021/12/30 07:07:22;;;;;;;38.30;12.30;;;;;;;6.12;67.73;100196.22;4379410;32;34836;-76
2021/12/30 07:09:50;;;;;;;34.50;12.48;;;;;;;6.10;67.72;100192.81;4392929;32;33932;-76
2021/12/30 07:12:17;;;;;;;33.92;11.95;;;;;;;6.31;67.04;100186.03;4366957;32;33514;-76
2021/12/30 07:14:47;;;;;;;34.85;16.35;;;;;;;6.19;67.62;100188.25;4378843;32;34529;-76
2021/12/30 07:17:15;;;;;;;38.08;13.62;;;;;;;6.25;72.56;100190.28;4378945;32;33925;-76
2021/12/30 07:19:42;;;;;;;36.30;12.82;;;;;;;6.41;70.85;100179.41;4378841;32;33998;-76
2021/12/30 07:22:10;;;;;;;49.47;16.23;;;;;;;6.43;69.55;100188.25;4366977;32;33760;-74
2021/12/30 07:25:00;;;;;;;52.17;15.60;;;;;;;6.51;72.83;100190.97;4381434;32;34657;-75
2021/12/30 07:27:41;;;;;;;48.05;14.55;;;;;;;7.10;75.94;100183.41;4378387;32;34410;-76
2021/12/30 07:30:08;;;;;;;42.35;12.95;;;;;;;7.32;74.00;100187.22;4378944;32;32970;-77
2021/12/30 07:32:36;;;;;;;43.25;12.32;;;;;;;7.19;72.03;100186.94;4366835;32;31924;-76
2021/12/30 07:35:04;;;;;;;36.75;13.27;;;;;;;7.03;69.55;100206.09;4379118;32;33758;-76
2021/12/30 07:37:32;;;;;;;41.08;14.20;;;;;;;6.95;68.01;100220.59;4379132;32;34465;-76
2021/12/30 07:39:59;;;;;;;31.90;12.77;;;;;;;6.78;67.23;100225.22;4366466;32;34296;-76
2021/12/30 07:42:27;;;;;;;33.30;11.70;;;;;;;6.83;66.40;100217.38;4380001;32;34254;-76
2021/12/30 07:44:54;;;;;;;46.05;13.25;;;;;;;6.74;66.39;100226.59;4368130;32;34211;-76
2021/12/30 07:47:24;;;;;;;31.55;11.85;;;;;;;6.61;66.59;100220.78;4381131;32;33594;-76
2021/12/30 07:49:52;;;;;;;46.80;12.23;;;;;;;6.60;66.43;100227.25;4394266;32;34126;-76
2021/12/30 07:52:20;;;;;;;34.17;12.18;;;;;;;6.46;66.59;100222.50;4380813;32;33863;-76
2021/12/30 07:54:47;;;;;;;45.47;15.05;;;;;;;6.38;66.75;100228.81;4368500;32;33377;-76
2021/12/30 07:57:21;;;;;;;42.72;14.63;;;;;;;6.35;66.86;100234.59;4368472;32;34281;-76
2021/12/30 07:59:50;;;;;;;32.30;12.20;;;;;;;6.33;66.93;100231.19;4381270;32;33958;-76
2021/12/30 08:02:18;;;;;;;49.10;12.63;;;;;;;6.30;66.93;100234.25;4380808;32;33749;-76
2021/12/30 08:04:46;;;;;;;30.17;12.20;;;;;;;6.34;66.98;100230.16;4380571;32;32293;-76
2021/12/30 08:07:21;;;;;;;33.13;10.93;;;;;;;6.36;66.94;100228.13;4368091;32;35176;-76
2021/12/30 08:09:49;;;;;;;40.47;13.18;;;;;;;6.23;67.41;100231.34;4381758;32;34543;-76
2021/12/30 08:12:16;;;;;;;31.42;12.75;;;;;;;6.22;67.40;100232.38;4368060;32;32162;-76
2021/12/30 08:14:44;;;;;;;44.22;16.30;;;;;;;6.22;67.77;100229.63;4368253;32;33678;-76
2021/12/30 08:17:12;;;;;;;31.00;12.18;;;;;;;6.31;67.54;100226.94;4368174;32;33270;-76
2021/12/30 08:19:39;;;;;;;29.35;12.55;;;;;;;6.40;67.34;100237.69;4368181;32;33207;-76
2021/12/30 08:22:09;;;;;;;33.33;11.95;;;;;;;6.39;67.39;100235.97;4367987;32;34152;-76
2021/12/30 08:24:43;;;;;;;32.15;11.20;;;;;;;6.20;67.98;100234.41;4368782;32;32271;-76
2021/12/30 08:27:13;;;;;;;27.60;11.73;;;;;;;6.25;68.01;100239.34;4394530;32;34217;-76
2021/12/30 08:29:43;;;;;;;30.65;11.85;;;;;;;6.22;68.10;100251.44;4380580;32;34061;-76
2021/12/30 08:32:16;;;;;;;35.42;11.70;;;;;;;6.49;67.36;100249.44;4368427;32;33485;-76
2021/12/30 08:34:45;;;;;;;32.67;11.12;;;;;;;6.12;68.32;100250.72;4380748;32;33932;-76
2021/12/30 08:37:13;;;;;;;39.80;11.75;;;;;;;6.17;68.14;100256.53;4394137;32;35186;-77
2021/12/30 08:39:41;;;;;;;29.33;10.73;;;;;;;6.22;67.90;100250.59;4368213;32;34834;-76
2021/12/30 08:42:21;;;;;;;32.55;12.55;;;;;;;6.42;67.23;100252.00;4380573;32;33366;-76
2021/12/30 08:44:49;;;;;;;35.45;11.98;;;;;;;6.22;67.77;100256.03;4368413;32;34382;-76
2021/12/30 08:47:17;;;;;;;39.20;11.32;;;;;;;6.18;68.21;100254.66;4380721;32;34304;-76
2021/12/30 08:49:46;;;;;;;28.55;11.57;;;;;;;6.09;68.76;100266.56;4380553;32;34237;-76
2021/12/30 08:52:19;;;;;;;31.35;12.40;;;;;;;6.42;67.72;100268.34;4380636;32;33509;-76
2021/12/30 08:54:47;;;;;;;37.47;13.35;;;;;;;6.38;67.91;100266.97;4380276;32;33572;-76
2021/12/30 08:57:19;;;;;;;29.73;12.15;;;;;;;6.36;68.26;100265.44;4379158;32;34571;-76
2021/12/30 08:59:47;;;;;;;23.92;9.35;;;;;;;6.48;67.76;100266.81;4393636;32;33674;-75
2021/12/30 09:02:16;;;;;;;37.03;13.13;;;;;;;6.70;73.07;100266.12;4380736;32;33653;-76
2021/12/30 09:04:46;;;;;;;35.72;13.77;;;;;;;7.04;72.27;100267.84;4380233;32;34871;-76
2021/12/30 09:07:16;;;;;;;32.88;13.00;;;;;;;7.00;70.03;100263.75;4380438;32;34444;-76
2021/12/30 09:09:44;;;;;;;37.47;12.90;;;;;;;7.01;68.73;100271.75;4380381;32;33999;-76
2021/12/30 09:12:18;;;;;;;32.90;12.60;;;;;;;6.51;68.45;100274.63;4380696;32;34338;-76
2021/12/30 09:14:52;;;;;;;29.98;12.02;;;;;;;6.78;67.14;100279.78;4368737;32;32298;-76
2021/12/30 09:17:19;;;;;;;32.75;13.07;;;;;;;6.83;67.39;100273.81;4367609;32;34632;-76
2021/12/30 09:19:47;;;;;;;35.95;12.93;;;;;;;6.79;67.24;100264.25;4380088;32;34616;-76
2021/12/30 09:22:18;;;;;;;30.40;13.23;;;;;;;6.85;66.86;100269.03;4393777;32;34458;-76
2021/12/30 09:24:45;;;;;;;27.98;12.75;;;;;;;6.73;66.97;100265.78;4368096;32;33745;-76
2021/12/30 09:27:15;;;;;;;31.90;13.18;;;;;;;6.76;66.66;100257.28;4367588;32;33755;-76
2021/12/30 09:29:42;;;;;;;36.65;13.57;;;;;;;6.83;66.86;100254.72;4380508;32;34046;-76
2021/12/30 09:32:10;;;;;;;31.60;12.32;;;;;;;6.83;66.81;100257.44;4367979;32;33758;-76
2021/12/30 09:34:38;;;;;;;32.70;12.98;;;;;;;6.72;67.04;100261.34;4367906;32;34650;-76
2021/12/30 09:37:10;;;;;;;34.25;13.93;;;;;;;6.89;66.58;100268.53;4380288;32;34327;-76
2021/12/30 09:39:38;;;;;;;31.60;13.02;;;;;;;6.89;66.60;100275.84;4380268;32;33784;-75
2021/12/30 09:42:06;;;;;;;30.12;12.30;;;;;;;6.81;67.02;100287.63;4380310;32;34019;-76
2021/12/30 09:44:34;;;;;;;33.80;13.85;;;;;;;6.80;66.81;100279.59;4380452;32;33807;-76
2021/12/30 09:47:03;;;;;;;34.72;13.25;;;;;;;6.70;66.94;100282.50;4393609;32;34926;-76
2021/12/30 09:49:34;;;;;;;36.55;13.23;;;;;;;6.78;66.98;100284.37;4380459;32;33905;-76
2021/12/30 09:52:02;;;;;;;37.78;14.55;;;;;;;6.79;66.92;100286.09;4379865;32;32252;-75
2021/12/30 09:54:32;;;;;;;39.15;14.68;;;;;;;6.85;66.76;100291.72;4393400;32;33522;-75
2021/12/30 09:57:00;;;;;;;40.12;13.98;;;;;;;6.90;66.57;100293.94;4393468;32;34306;-76
2021/12/30 09:59:31;;;;;;;40.83;15.35;;;;;;;6.54;67.90;100294.25;4367688;32;34761;-76
2021/12/30 10:01:59;;;;;;;42.05;15.55;;;;;;;6.74;67.08;100293.91;4367515;32;31713;-76
2021/12/30 10:04:30;;;;;;;42.78;17.20;;;;;;;6.85;66.88;100293.59;4392585;32;33735;-76
2021/12/30 10:06:58;;;;;;;44.03;18.25;;;;;;;6.93;66.53;100297.19;4393369;32;34422;-76
2021/12/30 10:09:39;;;;;;;48.72;17.27;;;;;;;6.85;66.87;100286.25;4380172;32;33999;-76
2021/12/30 10:12:10;;;;;;;39.25;16.05;;;;;;;6.96;66.48;100285.06;4380171;32;33340;-75
2021/12/30 10:14:39;;;;;;;38.60;15.63;;;;;;;6.80;67.25;100282.34;4367544;32;33520;-76
2021/12/30 10:17:25;;;;;;;44.88;16.92;;;;;;;6.88;67.14;100280.47;4393319;32;35212;-75
2021/12/30 10:19:54;;;;;;;41.42;16.12;;;;;;;6.98;66.85;100284.91;4380048;32;34434;-75
2021/12/30 10:22:26;;;;;;;63.47;27.65;;;;;;;7.00;67.02;100274.66;4379711;32;33907;-75
2021/12/30 10:24:53;;;;;;;45.45;18.35;;;;;;;7.03;66.88;100274.31;4367354;32;33323;-75
2021/12/30 10:27:24;;;;;;;42.60;17.23;;;;;;;7.14;66.62;100280.28;4367489;32;35417;-75
2021/12/30 10:29:53;;;;;;;44.30;17.45;;;;;;;7.18;66.66;100273.41;4380043;32;33777;-75
2021/12/30 10:32:24;;;;;;;46.47;17.15;;;;;;;7.02;67.15;100269.88;4379706;32;33620;-76
2021/12/30 10:35:04;;;;;;;43.22;16.95;;;;;;;7.00;67.10;100274.66;4386911;32;34466;-76
2021/12/30 10:37:33;;;;;;;43.72;17.00;;;;;;;7.04;67.04;100282.34;4381988;32;34326;-76
2021/12/30 10:40:02;;;;;;;47.10;17.08;;;;;;;7.07;67.12;100279.25;4394538;32;34738;-76
2021/12/30 10:42:32;;;;;;;44.45;18.60;;;;;;;7.21;66.55;100281.25;4406757;32;33126;-76
2021/12/30 10:45:05;;;;;;;44.75;18.30;;;;;;;7.20;66.82;100282.28;4379648;32;34810;-75
2021/12/30 10:47:50;;;;;;;52.78;21.52;;;;;;;7.30;66.62;100276.66;4392978;32;34309;-76
2021/12/30 10:50:21;;;;;;;46.55;20.55;;;;;;;7.16;67.18;100278.19;4379400;32;34234;-76
2021/12/30 10:52:54;;;;;;;45.63;20.50;;;;;;;7.34;66.61;100266.22;4367144;32;34187;-76
2021/12/30 10:55:25;;;;;;;48.78;20.52;;;;;;;7.09;67.16;100266.31;4367000;32;33869;-76
2021/12/30 10:57:53;;;;;;;52.80;21.05;;;;;;;7.24;66.75;100263.69;4379337;32;34354;-75
2021/12/30 11:00:30;;;;;;;51.67;18.95;;;;;;;7.19;67.13;100261.47;4367206;32;34097;-76
2021/12/30 11:03:17;;;;;;;50.12;20.35;;;;;;;7.18;67.32;100261.66;4379435;32;33649;-76
2021/12/30 11:06:04;;;;;;;;;;;;;;;7.07;67.69;100257.44;4392023;32;33579;-76
2021/12/30 11:08:31;;;;;;;46.65;18.85;;;;;;;7.28;67.01;100254.13;4393173;32;35272;-76
2021/12/30 11:10:59;;;;;;;47.28;18.40;;;;;;;7.01;67.79;100249.09;4392732;32;34710;-76
2021/12/30 11:13:26;;;;;;;45.63;19.23;;;;;;;7.06;67.75;100252.16;4378983;32;33382;-76
2021/12/30 11:16:03;;;;;;;49.25;20.27;;;;;;;7.13;67.63;100258.63;4366697;32;33186;-75
2021/12/30 11:18:41;;;;;;;53.05;21.17;;;;;;;7.00;68.10;100255.56;4379170;32;35303;-76
2021/12/30 11:21:11;;;;;;;47.67;20.23;;;;;;;7.01;68.46;100257.25;4379261;32;34168;-75
2021/12/30 11:23:38;;;;;;;56.55;22.62;;;;;;;7.10;68.04;100248.91;4379321;32;34370;-75
2021/12/30 11:26:06;;;;;;;49.28;19.65;;;;;;;7.10;68.00;100250.78;4379026;32;33935;-75
2021/12/30 11:28:34;;;;;;;49.47;22.13;;;;;;;7.11;67.93;100247.03;4379044;32;34429;-75
2021/12/30 11:31:01;;;;;;;50.42;22.73;;;;;;;7.35;67.00;100238.75;4379139;32;33954;-75